createdAt,value
2023-01-17T00:01:49.335Z,0.30
2023-01-17T00:04:34.874Z,0.20
2023-01-17T00:07:20.295Z,0.20
2023-01-17T00:09:53.060Z,0.10
2023-01-17T00:12:20.735Z,0.10
2023-01-17T00:14:48.052Z,0.10
2023-01-17T00:17:14.963Z,0.00
2023-01-17T00:20:00.248Z,0.00
2023-01-17T00:22:47.656Z,0.00
2023-01-17T00:25:35.406Z,-0.10
2023-01-17T00:28:02.376Z,-0.20
2023-01-17T00:30:29.255Z,-0.20
2023-01-17T00:32:56.186Z,-0.20
2023-01-17T00:35:23.721Z,-0.10
2023-01-17T00:38:01.824Z,-0.10
2023-01-17T00:40:28.682Z,-0.10
2023-01-17T00:43:13.944Z,-0.10
2023-01-17T00:46:00.867Z,-0.10
2023-01-17T00:48:46.221Z,-0.10
2023-01-17T00:51:31.557Z,-0.10
2023-01-17T00:54:18.893Z,-0.30
2023-01-17T00:57:04.407Z,-0.30
2023-01-17T00:59:49.806Z,-0.30
2023-01-17T01:02:35.221Z,-0.40
2023-01-17T01:05:20.647Z,-0.40
2023-01-17T01:08:05.961Z,-0.50
2023-01-17T01:10:51.680Z,-0.60
2023-01-17T01:13:37.525Z,-0.60
2023-01-17T01:16:23.030Z,-0.60
2023-01-17T01:19:08.489Z,-0.50
2023-01-17T01:21:53.899Z,-0.60
2023-01-17T01:24:39.628Z,-0.60
2023-01-17T01:27:25.342Z,-0.60
2023-01-17T01:30:10.714Z,-0.60
2023-01-17T01:32:56.326Z,-0.60
2023-01-17T01:35:23.254Z,-0.60
2023-01-17T01:37:50.167Z,-0.60
2023-01-17T01:40:17.871Z,-0.50
2023-01-17T01:42:58.232Z,-0.50
2023-01-17T01:45:27.168Z,-0.50
2023-01-17T01:48:02.708Z,-0.50
2023-01-17T01:50:30.569Z,-0.60
2023-01-17T01:53:00.112Z,-0.70
2023-01-17T01:55:40.581Z,-0.80
2023-01-17T01:58:16.301Z,-0.80
2023-01-17T02:00:43.235Z,-0.80
2023-01-17T02:03:30.655Z,-0.80
2023-01-17T02:06:01.450Z,-0.80
2023-01-17T02:08:28.299Z,-0.70
2023-01-17T02:10:55.094Z,-0.80
2023-01-17T02:13:22.026Z,-0.80
2023-01-17T02:16:23.665Z,-0.80
2023-01-17T02:19:21.234Z,-0.80
2023-01-17T02:21:54.294Z,-0.80
2023-01-17T02:24:34.887Z,-0.80
2023-01-17T02:27:23.702Z,-0.90
2023-01-17T02:30:18.846Z,-0.90
2023-01-17T02:33:09.829Z,-0.90
2023-01-17T02:35:45.911Z,-0.90
2023-01-17T02:38:37.226Z,-0.90
2023-01-17T02:41:07.915Z,-1.00
2023-01-17T02:43:35.927Z,-1.00
2023-01-17T02:46:02.928Z,-1.10
2023-01-17T02:48:31.527Z,-1.10
2023-01-17T02:51:13.702Z,-1.20
2023-01-17T02:54:11.329Z,-1.20
2023-01-17T02:56:46.720Z,-1.20
2023-01-17T02:59:38.552Z,-1.30
2023-01-17T03:02:22.611Z,-1.30
2023-01-17T03:04:56.593Z,-1.20
2023-01-17T03:07:25.983Z,-1.10
2023-01-17T03:09:56.235Z,-1.10
2023-01-17T03:12:23.129Z,-1.10
2023-01-17T03:14:50.027Z,-1.10
2023-01-17T03:17:16.905Z,-1.00
2023-01-17T03:19:43.770Z,-1.00
2023-01-17T03:22:10.696Z,-1.10
2023-01-17T03:24:37.498Z,-1.20
2023-01-17T03:27:04.419Z,-1.20
2023-01-17T03:29:31.278Z,-1.20
2023-01-17T03:31:58.307Z,-1.20
2023-01-17T03:34:25.365Z,-1.30
2023-01-17T03:36:52.169Z,-1.30
2023-01-17T03:39:19.008Z,-1.30
2023-01-17T03:41:45.789Z,-1.20
2023-01-17T03:44:12.619Z,-1.10
2023-01-17T03:46:39.432Z,-1.10
2023-01-17T03:49:06.298Z,-1.20
2023-01-17T03:51:33.080Z,-1.30
2023-01-17T03:53:59.932Z,-1.30
2023-01-17T03:56:26.816Z,-1.30
2023-01-17T03:58:53.716Z,-1.30
2023-01-17T04:01:20.548Z,-1.40
2023-01-17T04:03:47.400Z,-1.40
2023-01-17T04:06:14.216Z,-1.40
2023-01-17T04:08:41.642Z,-1.40
2023-01-17T04:11:08.471Z,-1.50
2023-01-17T04:13:35.322Z,-1.50
2023-01-17T04:16:02.107Z,-1.40
2023-01-17T04:18:28.976Z,-1.40
2023-01-17T04:20:55.761Z,-1.40
2023-01-17T04:23:22.585Z,-1.50
2023-01-17T04:25:49.404Z,-1.50
2023-01-17T04:28:16.460Z,-1.50
2023-01-17T04:30:43.363Z,-1.40
2023-01-17T04:33:10.271Z,-1.40
2023-01-17T04:35:37.157Z,-1.40
2023-01-17T04:38:04.061Z,-1.30
2023-01-17T04:40:30.919Z,-1.40
2023-01-17T04:42:58.200Z,-1.50
2023-01-17T04:45:25.091Z,-1.50
2023-01-17T04:47:51.984Z,-1.60
2023-01-17T04:50:18.865Z,-1.50
2023-01-17T04:52:45.689Z,-1.60
2023-01-17T04:55:12.519Z,-1.60
2023-01-17T04:57:39.319Z,-1.60
2023-01-17T05:00:06.912Z,-1.70
2023-01-17T05:02:33.870Z,-1.70
2023-01-17T05:05:00.799Z,-1.70
2023-01-17T05:07:27.585Z,-1.70
2023-01-17T05:09:54.444Z,-1.60
2023-01-17T05:12:21.285Z,-1.60
2023-01-17T05:14:48.121Z,-1.70
2023-01-17T05:17:14.950Z,-1.70
2023-01-17T05:19:41.776Z,-1.80
2023-01-17T05:22:15.310Z,-1.80
2023-01-17T05:24:46.443Z,-1.90
2023-01-17T05:27:13.898Z,-2.00
2023-01-17T05:29:40.868Z,-2.00
2023-01-17T05:32:07.790Z,-2.00
2023-01-17T05:34:35.071Z,-2.20
2023-01-17T05:37:02.010Z,-2.20
2023-01-17T05:39:30.852Z,-2.10
2023-01-17T05:41:58.189Z,-2.10
2023-01-17T05:44:25.095Z,-2.10
2023-01-17T05:46:51.902Z,-2.20
2023-01-17T05:49:18.708Z,-2.20
2023-01-17T05:51:45.660Z,-2.10
2023-01-17T05:54:12.432Z,-2.10
2023-01-17T05:56:39.310Z,-2.10
2023-01-17T05:59:06.168Z,-2.10
2023-01-17T06:01:33.014Z,-2.20
2023-01-17T06:03:59.912Z,-2.20
2023-01-17T06:06:29.876Z,-2.30
2023-01-17T06:08:56.766Z,-2.20
2023-01-17T06:11:23.620Z,-2.20
2023-01-17T06:13:50.520Z,-2.20
2023-01-17T06:16:17.454Z,-2.30
2023-01-17T06:18:44.408Z,-2.20
2023-01-17T06:21:11.176Z,-2.30
2023-01-17T06:23:38.103Z,-2.30
2023-01-17T06:26:05.065Z,-2.30
2023-01-17T06:28:31.983Z,-2.30
2023-01-17T06:30:59.895Z,-2.30
2023-01-17T06:33:27.122Z,-2.30
2023-01-17T06:35:54.198Z,-2.20
2023-01-17T06:38:21.229Z,-2.20
2023-01-17T06:40:48.210Z,-2.20
2023-01-17T06:43:15.113Z,-2.10
2023-01-17T06:45:41.931Z,-2.10
2023-01-17T06:48:08.768Z,-2.20
2023-01-17T06:50:35.660Z,-2.30
2023-01-17T06:53:04.258Z,-2.40
2023-01-17T06:55:34.448Z,-2.40
2023-01-17T06:58:02.608Z,-2.50
2023-01-17T07:00:30.699Z,-2.50
2023-01-17T07:02:59.373Z,-2.50
2023-01-17T07:05:27.331Z,-2.60
2023-01-17T07:07:54.255Z,-2.70
2023-01-17T07:10:21.254Z,-2.60
2023-01-17T07:12:48.261Z,-2.60
2023-01-17T07:15:15.238Z,-2.60
2023-01-17T07:17:42.201Z,-2.60
2023-01-17T07:20:09.723Z,-2.50
2023-01-17T07:22:37.913Z,-2.40
2023-01-17T07:25:05.246Z,-2.50
2023-01-17T07:27:38.001Z,-2.50
2023-01-17T07:30:05.289Z,-2.50
2023-01-17T07:32:32.158Z,-2.50
2023-01-17T07:34:58.989Z,-2.40
2023-01-17T07:37:28.720Z,-2.50
2023-01-17T07:39:55.706Z,-2.60
2023-01-17T07:42:24.204Z,-2.60
2023-01-17T07:44:51.278Z,-2.50
2023-01-17T07:47:18.113Z,-2.50
2023-01-17T07:49:45.162Z,-2.50
2023-01-17T07:52:12.038Z,-2.50
2023-01-17T07:54:38.950Z,-2.50
2023-01-17T07:57:06.001Z,-2.40
2023-01-17T07:59:34.475Z,-2.50
2023-01-17T08:02:01.425Z,-2.50
2023-01-17T08:04:34.611Z,-2.50
2023-01-17T08:07:01.842Z,-2.50
2023-01-17T08:09:28.827Z,-2.60
2023-01-17T08:11:55.757Z,-2.60
2023-01-17T08:14:22.735Z,-2.60
2023-01-17T08:16:49.799Z,-2.60
2023-01-17T08:19:17.170Z,-2.50
2023-01-17T08:21:44.167Z,-2.60
2023-01-17T08:24:14.160Z,-2.60
2023-01-17T08:26:41.262Z,-2.50
2023-01-17T08:29:08.232Z,-2.50
2023-01-17T08:31:35.405Z,-2.50
2023-01-17T08:34:02.368Z,-2.40
2023-01-17T08:36:31.204Z,-2.40
2023-01-17T08:38:58.165Z,-2.30
2023-01-17T08:41:27.411Z,-2.30
2023-01-17T08:43:54.293Z,-2.20
2023-01-17T08:46:21.248Z,-2.20
2023-01-17T08:48:48.102Z,-2.30
2023-01-17T08:51:14.944Z,-2.30
2023-01-17T08:53:42.468Z,-2.20
2023-01-17T08:56:09.404Z,-2.20
2023-01-17T08:58:36.450Z,-2.20
2023-01-17T09:01:04.284Z,-2.20
2023-01-17T09:03:31.676Z,-2.20
2023-01-17T09:06:08.967Z,-2.20
2023-01-17T09:08:36.208Z,-2.10
2023-01-17T09:11:07.423Z,-2.10
2023-01-17T09:13:34.591Z,-2.00
2023-01-17T09:16:02.026Z,-1.90
2023-01-17T09:18:29.500Z,-1.80
2023-01-17T09:20:59.051Z,-1.80
2023-01-17T09:23:27.297Z,-1.70
2023-01-17T09:25:58.063Z,-1.60
2023-01-17T09:28:25.690Z,-1.50
2023-01-17T09:30:53.084Z,-1.50
2023-01-17T09:33:20.105Z,-1.40
2023-01-17T09:35:47.089Z,-1.40
2023-01-17T09:38:13.977Z,-1.40
2023-01-17T09:40:47.744Z,-1.30
2023-01-17T09:43:23.509Z,-1.30
2023-01-17T09:45:50.430Z,-1.20
2023-01-17T09:48:24.565Z,-1.10
2023-01-17T09:50:54.748Z,-1.00
2023-01-17T09:53:21.728Z,-1.00
2023-01-17T09:56:12.223Z,-0.90
2023-01-17T09:58:47.966Z,-0.90
2023-01-17T10:01:47.957Z,-0.80
2023-01-17T10:04:18.387Z,-0.80
2023-01-17T10:07:10.303Z,-0.80
2023-01-17T10:09:49.129Z,-0.80
2023-01-17T10:12:28.560Z,-0.70
2023-01-17T10:15:13.481Z,-0.70
2023-01-17T10:18:28.856Z,-0.60
2023-01-17T10:21:04.669Z,-0.50
2023-01-17T10:23:50.163Z,-0.50
2023-01-17T10:26:18.883Z,-0.40
2023-01-17T10:28:51.315Z,-0.40
2023-01-17T10:31:22.768Z,-0.30
2023-01-17T10:33:54.000Z,-0.30
2023-01-17T10:36:24.630Z,-0.30
2023-01-17T10:39:02.856Z,-0.20
2023-01-17T10:41:31.936Z,-0.30
2023-01-17T10:44:04.651Z,-0.20
2023-01-17T10:46:47.582Z,-0.20
2023-01-17T10:49:21.667Z,-0.10
2023-01-17T10:52:00.380Z,-0.10
2023-01-17T10:54:41.988Z,0.00
2023-01-17T10:57:39.879Z,0.10
2023-01-17T11:00:40.267Z,0.10
2023-01-17T11:03:07.652Z,0.20
2023-01-17T11:05:34.564Z,0.20
2023-01-17T11:08:06.125Z,0.20
2023-01-17T11:10:37.979Z,0.20
2023-01-17T11:13:17.373Z,0.30
2023-01-17T11:15:47.520Z,0.30
2023-01-17T11:18:15.978Z,0.30
2023-01-17T11:20:45.915Z,0.30
2023-01-17T11:23:20.999Z,0.30
2023-01-17T11:25:58.645Z,0.40
2023-01-17T11:28:45.980Z,0.40
2023-01-17T11:31:16.691Z,0.40
2023-01-17T11:33:49.145Z,0.50
2023-01-17T11:36:21.092Z,0.50
2023-01-17T11:38:56.537Z,0.40
2023-01-17T11:41:24.384Z,0.50
2023-01-17T11:43:52.274Z,0.50
2023-01-17T11:46:20.441Z,0.50
2023-01-17T11:48:56.285Z,0.60
2023-01-17T11:51:39.237Z,0.70
2023-01-17T11:54:09.044Z,0.70
2023-01-17T11:56:36.670Z,0.80
2023-01-17T11:59:22.254Z,0.80
2023-01-17T12:01:58.350Z,0.80
2023-01-17T12:04:27.723Z,0.90
2023-01-17T12:06:58.674Z,1.00
2023-01-17T12:09:31.707Z,1.10
2023-01-17T12:12:41.562Z,1.10
2023-01-17T12:15:20.679Z,1.20
2023-01-17T12:17:53.816Z,1.30
2023-01-17T12:20:26.160Z,1.30
2023-01-17T12:22:59.788Z,1.30
2023-01-17T12:25:59.217Z,1.30
2023-01-17T12:28:56.831Z,1.40
2023-01-17T12:31:33.409Z,1.40
2023-01-17T12:34:31.656Z,1.50
2023-01-17T12:37:02.227Z,1.50
2023-01-17T12:39:42.196Z,1.60
2023-01-17T12:42:20.880Z,1.60
2023-01-17T12:44:57.943Z,1.60
2023-01-17T12:47:24.941Z,1.60
2023-01-17T12:50:24.064Z,1.60
2023-01-17T12:53:18.806Z,1.60
2023-01-17T12:55:55.444Z,1.60
2023-01-17T12:58:24.951Z,1.60
2023-01-17T13:01:13.861Z,1.70
2023-01-17T13:03:43.601Z,1.70
2023-01-17T13:06:12.279Z,1.70
2023-01-17T13:08:44.124Z,1.70
2023-01-17T13:11:28.608Z,1.70
2023-01-17T13:13:57.593Z,1.70
2023-01-17T13:16:32.075Z,1.70
2023-01-17T13:19:03.194Z,1.70
2023-01-17T13:21:31.502Z,1.80
2023-01-17T13:24:05.980Z,1.80
2023-01-17T13:26:48.998Z,1.80
2023-01-17T13:29:29.966Z,1.80
2023-01-17T13:32:29.084Z,1.80
2023-01-17T13:35:21.587Z,1.80
2023-01-17T13:37:58.510Z,1.70
2023-01-17T13:40:53.432Z,1.80
2023-01-17T13:44:08.865Z,1.80
2023-01-17T13:46:53.993Z,1.80
2023-01-17T13:49:41.237Z,1.80
2023-01-17T13:52:11.117Z,1.90
2023-01-17T13:54:44.866Z,1.90
2023-01-17T13:57:24.625Z,2.00
2023-01-17T13:59:58.675Z,2.00
2023-01-17T14:02:38.834Z,2.00
2023-01-17T14:05:07.427Z,2.00
2023-01-17T14:07:36.052Z,2.00
2023-01-17T14:10:24.637Z,2.00
2023-01-17T14:12:51.795Z,2.00
2023-01-17T14:15:23.117Z,2.00
2023-01-17T14:17:58.208Z,2.00
2023-01-17T14:20:35.379Z,2.00
2023-01-17T14:23:03.998Z,2.00
2023-01-17T14:25:40.407Z,1.90
2023-01-17T14:28:29.358Z,2.00
2023-01-17T14:30:57.568Z,2.00
2023-01-17T14:33:34.849Z,2.00
2023-01-17T14:36:04.758Z,2.00
2023-01-17T14:38:32.925Z,2.00
2023-01-17T14:41:03.551Z,2.00
2023-01-17T14:43:32.938Z,2.00
2023-01-17T14:46:04.989Z,2.00
2023-01-17T14:48:31.929Z,2.00
2023-01-17T14:51:01.898Z,2.00
2023-01-17T14:53:32.190Z,2.00
2023-01-17T14:56:16.818Z,2.00
2023-01-17T14:58:46.465Z,1.90
2023-01-17T15:01:18.687Z,1.90
2023-01-17T15:03:50.176Z,1.90
2023-01-17T15:06:22.314Z,1.90
2023-01-17T15:08:49.338Z,1.90
2023-01-17T15:11:18.822Z,1.90
2023-01-17T15:13:47.473Z,1.90
2023-01-17T15:16:20.308Z,1.90
2023-01-17T15:18:47.496Z,1.90
2023-01-17T15:21:24.743Z,1.80
2023-01-17T15:23:56.735Z,1.80
2023-01-17T15:26:25.472Z,1.80
2023-01-17T15:28:52.984Z,1.80
2023-01-17T15:31:23.268Z,1.80
2023-01-17T15:33:54.768Z,1.80
2023-01-17T15:36:21.573Z,1.70
2023-01-17T15:39:00.210Z,1.70
2023-01-17T15:41:33.515Z,1.70
2023-01-17T15:44:00.565Z,1.60
2023-01-17T15:46:34.620Z,1.60
2023-01-17T15:49:24.141Z,1.60
2023-01-17T15:51:58.038Z,1.60
2023-01-17T15:54:32.473Z,1.60
2023-01-17T15:57:26.184Z,1.60
2023-01-17T15:59:53.151Z,1.60
2023-01-17T16:02:46.638Z,1.60
2023-01-17T16:05:27.584Z,1.60
2023-01-17T16:07:58.530Z,1.50
2023-01-17T16:10:31.723Z,1.50
2023-01-17T16:12:59.193Z,1.50
2023-01-17T16:15:26.295Z,1.50
2023-01-17T16:18:16.942Z,1.40
2023-01-17T16:20:48.792Z,1.40
2023-01-17T16:23:15.767Z,1.50
2023-01-17T16:25:48.012Z,1.50
2023-01-17T16:28:14.876Z,1.50
2023-01-17T16:30:41.953Z,1.50
2023-01-17T16:33:13.559Z,1.40
2023-01-17T16:35:41.060Z,1.40
2023-01-17T16:38:12.324Z,1.40
2023-01-17T16:40:40.898Z,1.30
2023-01-17T16:43:07.754Z,1.30
2023-01-17T16:45:40.101Z,1.20
2023-01-17T16:48:07.314Z,1.20
2023-01-17T16:50:34.360Z,1.30
2023-01-17T16:53:01.214Z,1.20
2023-01-17T16:55:28.144Z,1.20
2023-01-17T16:57:57.532Z,1.20
2023-01-17T17:00:24.659Z,1.10
2023-01-17T17:02:51.904Z,1.10
2023-01-17T17:05:18.943Z,1.00
2023-01-17T17:07:50.805Z,1.00
2023-01-17T17:10:19.817Z,1.00
2023-01-17T17:12:46.941Z,1.00
2023-01-17T17:15:13.905Z,1.00
2023-01-17T17:17:43.711Z,0.90
2023-01-17T17:20:14.948Z,0.90
2023-01-17T17:22:45.349Z,0.90
2023-01-17T17:25:14.459Z,0.90
2023-01-17T17:27:41.471Z,1.00
2023-01-17T17:30:09.330Z,0.90
2023-01-17T17:32:36.338Z,1.00
2023-01-17T17:35:03.514Z,1.00
2023-01-17T17:37:30.543Z,1.00
2023-01-17T17:39:57.774Z,1.00
2023-01-17T17:42:24.692Z,1.00
2023-01-17T17:44:51.707Z,1.00
2023-01-17T17:47:18.651Z,1.00
2023-01-17T17:49:45.514Z,1.00
2023-01-17T17:52:13.161Z,1.00
2023-01-17T17:54:40.259Z,1.00
2023-01-17T17:57:07.571Z,1.00
2023-01-17T17:59:34.573Z,1.00
2023-01-17T18:02:01.579Z,0.90
2023-01-17T18:04:28.573Z,1.00
2023-01-17T18:06:57.360Z,0.90
2023-01-17T18:09:24.425Z,0.90
2023-01-17T18:11:51.559Z,0.90
2023-01-17T18:14:21.065Z,0.90
2023-01-17T18:16:48.248Z,0.90
2023-01-17T18:19:19.872Z,0.90
2023-01-17T18:21:46.967Z,0.90
2023-01-17T18:24:14.732Z,0.90
2023-01-17T18:26:43.342Z,0.90
2023-01-17T18:29:12.472Z,0.80
2023-01-17T18:31:39.418Z,0.80
2023-01-17T18:34:08.351Z,0.80
2023-01-17T18:36:35.689Z,0.80
2023-01-17T18:39:16.024Z,0.70
2023-01-17T18:41:42.872Z,0.80
2023-01-17T18:44:10.289Z,0.70
2023-01-17T18:46:37.456Z,0.70
2023-01-17T18:49:04.806Z,0.70
2023-01-17T18:51:33.330Z,0.70
2023-01-17T18:54:07.167Z,0.70
2023-01-17T18:56:34.741Z,0.70
2023-01-17T18:59:02.372Z,0.60
2023-01-17T19:01:30.583Z,0.60
2023-01-17T19:03:58.813Z,0.70
2023-01-17T19:06:31.439Z,0.60
2023-01-17T19:08:58.283Z,0.70
2023-01-17T19:11:25.260Z,0.70
2023-01-17T19:13:53.160Z,0.60
2023-01-17T19:16:24.945Z,0.50
2023-01-17T19:18:52.295Z,0.50
2023-01-17T19:21:23.608Z,0.50
2023-01-17T19:23:50.701Z,0.50
2023-01-17T19:26:19.829Z,0.50
2023-01-17T19:28:47.568Z,0.40
2023-01-17T19:31:15.450Z,0.40
2023-01-17T19:33:43.696Z,0.40
2023-01-17T19:36:14.420Z,0.40
2023-01-17T19:38:42.865Z,0.50
2023-01-17T19:41:23.632Z,0.50
2023-01-17T19:43:54.834Z,0.40
2023-01-17T19:46:22.397Z,0.40
2023-01-17T19:48:49.451Z,0.40
2023-01-17T19:51:16.766Z,0.40
2023-01-17T19:53:43.790Z,0.40
2023-01-17T19:56:11.677Z,0.40
2023-01-17T19:58:38.794Z,0.40
2023-01-17T20:01:10.629Z,0.40
2023-01-17T20:03:38.104Z,0.40
2023-01-17T20:06:06.600Z,0.40
2023-01-17T20:08:34.260Z,0.40
2023-01-17T20:11:02.747Z,0.40
2023-01-17T20:13:29.801Z,0.30
2023-01-17T20:15:59.313Z,0.30
2023-01-17T20:18:26.443Z,0.30
2023-01-17T20:20:57.347Z,0.30
2023-01-17T20:23:24.547Z,0.30
2023-01-17T20:26:01.907Z,0.30
2023-01-17T20:28:29.313Z,0.30
2023-01-17T20:30:56.395Z,0.20
2023-01-17T20:33:24.288Z,0.20
2023-01-17T20:36:04.853Z,0.20
2023-01-17T20:38:45.392Z,0.10
2023-01-17T20:41:25.165Z,0.10
2023-01-17T20:43:53.644Z,0.20
2023-01-17T20:46:21.542Z,0.20
2023-01-17T20:48:52.621Z,0.10
2023-01-17T20:51:19.691Z,0.20
2023-01-17T20:53:50.230Z,0.10
2023-01-17T20:56:18.166Z,0.20
2023-01-17T20:58:45.571Z,0.20
2023-01-17T21:01:13.738Z,0.20
2023-01-17T21:03:40.903Z,0.20
2023-01-17T21:06:09.259Z,0.10
2023-01-17T21:08:37.993Z,0.10
2023-01-17T21:11:05.294Z,0.10
2023-01-17T21:13:32.267Z,0.10
2023-01-17T21:15:59.516Z,0.00
2023-01-17T21:18:27.153Z,0.10
2023-01-17T21:20:54.047Z,0.00
2023-01-17T21:23:21.210Z,0.00
2023-01-17T21:25:55.805Z,0.00
2023-01-17T21:28:27.328Z,0.00
2023-01-17T21:30:54.413Z,0.00
2023-01-17T21:33:22.183Z,0.00
2023-01-17T21:35:49.402Z,0.00
2023-01-17T21:38:16.420Z,0.00
2023-01-17T21:40:43.520Z,0.00
2023-01-17T21:43:11.012Z,0.00
2023-01-17T21:45:41.404Z,0.00
2023-01-17T21:48:12.228Z,0.00
2023-01-17T21:50:39.365Z,0.00
2023-01-17T21:53:06.756Z,0.00
2023-01-17T21:55:52.150Z,0.00
2023-01-17T21:58:37.575Z,0.00
2023-01-17T22:01:21.762Z,0.00
2023-01-17T22:03:49.976Z,0.00
2023-01-17T22:06:20.429Z,0.10
2023-01-17T22:08:47.467Z,0.00
2023-01-17T22:11:20.933Z,0.00
2023-01-17T22:13:47.860Z,0.00
2023-01-17T22:16:17.394Z,0.10
2023-01-17T22:18:44.699Z,0.10
2023-01-17T22:21:13.586Z,0.10
2023-01-17T22:23:44.241Z,0.10
2023-01-17T22:26:11.759Z,0.20
2023-01-17T22:28:39.572Z,0.20
2023-01-17T22:31:20.974Z,0.20
2023-01-17T22:33:48.278Z,0.20
2023-01-17T22:36:15.280Z,0.20
2023-01-17T22:38:43.122Z,0.20
2023-01-17T22:41:16.085Z,0.20
2023-01-17T22:43:47.822Z,0.30
2023-01-17T22:46:16.402Z,0.30
2023-01-17T22:48:43.473Z,0.20
2023-01-17T22:51:12.014Z,0.20
2023-01-17T22:53:48.438Z,0.30
2023-01-17T22:56:20.089Z,0.30
2023-01-17T22:58:48.825Z,0.30
2023-01-17T23:01:17.565Z,0.30
2023-01-17T23:03:44.968Z,0.30
2023-01-17T23:06:21.717Z,0.20
2023-01-17T23:08:50.162Z,0.30
2023-01-17T23:11:39.764Z,0.20
2023-01-17T23:14:15.695Z,0.20
2023-01-17T23:17:17.607Z,0.20
2023-01-17T23:19:51.376Z,0.30
2023-01-17T23:22:23.074Z,0.30
2023-01-17T23:24:53.782Z,0.30
2023-01-17T23:27:51.946Z,0.30
2023-01-17T23:30:19.648Z,0.30
2023-01-17T23:32:50.342Z,0.30
2023-01-17T23:35:17.910Z,0.30
2023-01-17T23:38:03.271Z,0.30
2023-01-17T23:40:34.514Z,0.30
2023-01-17T23:43:20.283Z,0.30
2023-01-17T23:45:47.383Z,0.30
2023-01-17T23:48:15.928Z,0.30
2023-01-17T23:50:46.277Z,0.30
2023-01-17T23:53:24.364Z,0.30
2023-01-17T23:55:54.567Z,0.30
2023-01-17T23:58:27.543Z,0.40
